createdAt,value
2018-04-12T00:01:25.979Z,99.90
2018-04-12T00:03:54.402Z,99.90
2018-04-12T00:06:22.843Z,99.90
2018-04-12T00:08:51.986Z,99.90
2018-04-12T00:11:20.361Z,99.90
2018-04-12T00:13:48.725Z,99.90
2018-04-12T00:16:17.128Z,99.90
2018-04-12T00:18:45.488Z,99.90
2018-04-12T00:21:13.850Z,99.90
2018-04-12T00:23:42.254Z,99.90
2018-04-12T00:26:10.635Z,99.90
2018-04-12T00:28:39.005Z,99.90
2018-04-12T00:31:07.380Z,99.90
2018-04-12T00:33:36.652Z,99.90
2018-04-12T00:36:05.073Z,99.90
2018-04-12T00:38:33.444Z,99.90
2018-04-12T00:41:01.798Z,99.90
2018-04-12T00:43:30.213Z,99.90
2018-04-12T00:45:58.581Z,99.90
2018-04-12T00:48:27.047Z,99.90
2018-04-12T00:50:55.399Z,99.90
2018-04-12T00:53:36.603Z,99.90
2018-04-12T00:56:05.725Z,99.90
2018-04-12T00:58:34.087Z,99.90
2018-04-12T01:01:02.473Z,99.90
2018-04-12T01:03:30.911Z,99.90
2018-04-12T01:05:59.444Z,99.90
2018-04-12T01:08:27.792Z,99.90
2018-04-12T01:10:56.920Z,99.90
2018-04-12T01:13:25.287Z,99.90
2018-04-12T01:15:53.626Z,99.90
2018-04-12T01:18:22.817Z,99.90
2018-04-12T01:20:51.188Z,99.90
2018-04-12T01:23:19.584Z,99.90
2018-04-12T01:25:48.066Z,99.90
2018-04-12T01:28:16.505Z,99.90
2018-04-12T01:30:44.848Z,99.90
2018-04-12T01:33:17.126Z,99.90
2018-04-12T01:35:46.315Z,99.90
2018-04-12T01:38:15.446Z,99.90
2018-04-12T01:40:43.956Z,99.90
2018-04-12T01:43:12.343Z,99.90
2018-04-12T01:45:40.702Z,99.90
2018-04-12T01:48:09.189Z,99.90
2018-04-12T01:50:37.541Z,99.90
2018-04-12T01:53:05.923Z,99.90
2018-04-12T01:55:34.298Z,99.90
2018-04-12T01:58:02.679Z,99.90
2018-04-12T02:00:31.020Z,99.90
2018-04-12T02:03:00.151Z,99.90
2018-04-12T02:05:28.544Z,99.90
2018-04-12T02:07:56.897Z,99.90
2018-04-12T02:10:25.262Z,99.90
2018-04-12T02:12:53.652Z,99.90
2018-04-12T02:15:22.066Z,99.90
2018-04-12T02:17:50.435Z,99.90
2018-04-12T02:20:18.804Z,99.90
2018-04-12T02:22:47.229Z,99.90
2018-04-12T02:25:15.544Z,99.90
2018-04-12T02:27:43.923Z,99.90
2018-04-12T02:30:12.394Z,99.90
2018-04-12T02:32:41.557Z,99.90
2018-04-12T02:35:09.927Z,99.90
2018-04-12T02:37:38.289Z,99.90
2018-04-12T02:40:06.677Z,99.90
2018-04-12T02:42:35.045Z,99.90
2018-04-12T02:45:03.491Z,99.90
2018-04-12T02:47:32.624Z,99.90
2018-04-12T02:50:01.150Z,99.90
2018-04-12T02:52:29.492Z,99.90
2018-04-12T02:54:57.991Z,99.90
2018-04-12T02:57:26.451Z,99.90
2018-04-12T02:59:54.789Z,99.90
2018-04-12T03:02:23.916Z,99.90
2018-04-12T03:04:52.264Z,99.90
2018-04-12T03:07:21.387Z,99.90
2018-04-12T03:09:49.736Z,99.90
2018-04-12T03:12:18.900Z,99.90
2018-04-12T03:14:47.253Z,99.90
2018-04-12T03:17:15.588Z,99.90
2018-04-12T03:19:44.023Z,99.90
2018-04-12T03:22:12.363Z,99.90
2018-04-12T03:24:40.731Z,99.90
2018-04-12T03:27:09.863Z,99.90
2018-04-12T03:29:38.273Z,99.90
2018-04-12T03:32:06.723Z,99.90
2018-04-12T03:34:35.131Z,99.90
2018-04-12T03:37:04.168Z,99.90
2018-04-12T03:39:33.367Z,99.90
2018-04-12T03:42:01.756Z,99.90
2018-04-12T03:44:30.117Z,99.90
2018-04-12T03:46:59.336Z,99.90
2018-04-12T03:49:28.672Z,99.90
2018-04-12T03:51:57.099Z,99.90
2018-04-12T03:54:26.232Z,99.90
2018-04-12T03:56:54.818Z,99.90
2018-04-12T03:59:23.159Z,99.90
2018-04-12T04:01:52.293Z,99.90
2018-04-12T04:04:20.679Z,99.90
2018-04-12T04:06:49.045Z,99.90
2018-04-12T04:09:17.529Z,99.90
2018-04-12T04:11:45.897Z,99.90
2018-04-12T04:14:26.151Z,99.90
2018-04-12T04:17:06.536Z,99.90
2018-04-12T04:19:46.735Z,99.90
2018-04-12T04:22:15.312Z,99.90
2018-04-12T04:24:43.653Z,99.90
2018-04-12T04:27:11.991Z,99.90
2018-04-12T04:29:41.123Z,99.90
2018-04-12T04:32:09.482Z,99.90
2018-04-12T04:34:37.882Z,99.90
2018-04-12T04:37:06.248Z,99.90
2018-04-12T04:39:34.693Z,99.90
2018-04-12T04:42:03.060Z,99.90
2018-04-12T04:44:31.430Z,99.90
2018-04-12T04:46:59.884Z,99.90
2018-04-12T04:49:28.236Z,99.90
2018-04-12T04:51:56.639Z,99.90
2018-04-12T04:54:25.024Z,99.90
2018-04-12T04:56:53.367Z,99.90
2018-04-12T04:59:22.482Z,99.90
2018-04-12T05:01:50.904Z,99.90
2018-04-12T05:04:19.246Z,99.90
2018-04-12T05:06:47.597Z,99.90
2018-04-12T05:09:15.997Z,99.90
2018-04-12T05:11:44.503Z,99.90
2018-04-12T05:14:12.903Z,99.90
2018-04-12T05:16:41.314Z,99.90
2018-04-12T05:19:10.496Z,99.90
2018-04-12T05:21:39.039Z,99.90
2018-04-12T05:24:07.434Z,99.90
2018-04-12T05:26:35.787Z,99.90
2018-04-12T05:29:04.130Z,99.90
2018-04-12T05:31:32.561Z,99.90
2018-04-12T05:34:00.902Z,99.90
2018-04-12T05:36:30.052Z,99.90
2018-04-12T05:38:58.403Z,99.90
2018-04-12T05:41:26.777Z,99.90
2018-04-12T05:43:55.150Z,99.90
2018-04-12T05:46:24.377Z,99.90
2018-04-12T05:48:53.457Z,99.90
2018-04-12T05:51:21.852Z,99.90
2018-04-12T05:53:50.229Z,99.90
2018-04-12T05:56:18.595Z,99.90
2018-04-12T05:58:46.987Z,99.90
2018-04-12T06:01:15.583Z,99.90
2018-04-12T06:03:43.949Z,99.90
2018-04-12T06:06:12.286Z,99.90
2018-04-12T06:08:40.668Z,99.90
2018-04-12T06:11:09.041Z,99.90
2018-04-12T06:13:37.381Z,99.90
2018-04-12T06:16:05.772Z,99.90
2018-04-12T06:18:34.297Z,99.90
2018-04-12T06:21:02.806Z,99.90
2018-04-12T06:23:31.519Z,99.90
2018-04-12T06:25:59.922Z,99.90
2018-04-12T06:28:28.299Z,99.90
2018-04-12T06:30:56.663Z,99.90
2018-04-12T06:33:25.009Z,99.90
2018-04-12T06:35:53.383Z,99.90
2018-04-12T06:38:21.883Z,99.90
2018-04-12T06:40:50.225Z,99.90
2018-04-12T06:43:19.346Z,99.90
2018-04-12T06:45:48.418Z,99.90
2018-04-12T06:48:16.848Z,99.90
2018-04-12T06:50:45.178Z,99.90
2018-04-12T06:53:13.533Z,99.90
2018-04-12T06:55:42.797Z,99.90
2018-04-12T06:58:11.127Z,99.90
2018-04-12T07:00:39.488Z,99.90
2018-04-12T07:03:07.949Z,99.90
2018-04-12T07:05:36.350Z,99.90
2018-04-12T07:08:04.899Z,99.90
2018-04-12T07:10:33.244Z,99.90
2018-04-12T07:13:01.588Z,99.90
2018-04-12T07:15:30.682Z,99.90
2018-04-12T07:17:59.836Z,99.90
2018-04-12T07:20:28.893Z,99.90
2018-04-12T07:22:58.024Z,99.90
2018-04-12T07:25:26.365Z,99.90
2018-04-12T07:27:54.774Z,99.90
2018-04-12T07:30:23.127Z,99.90
2018-04-12T07:32:51.517Z,99.90
2018-04-12T07:35:20.639Z,99.90
2018-04-12T07:37:49.100Z,99.90
2018-04-12T07:40:17.477Z,99.90
2018-04-12T07:42:45.886Z,99.90
2018-04-12T07:45:14.409Z,99.90
2018-04-12T07:47:43.535Z,99.90
2018-04-12T07:50:12.552Z,99.90
2018-04-12T07:52:40.912Z,99.90
2018-04-12T07:55:09.362Z,99.90
2018-04-12T07:57:38.494Z,99.90
2018-04-12T08:00:06.900Z,99.90
2018-04-12T08:02:35.390Z,99.90
2018-04-12T08:05:03.738Z,99.90
2018-04-12T08:07:32.118Z,99.90
2018-04-12T08:10:00.494Z,99.90
2018-04-12T08:12:28.882Z,99.90
2018-04-12T08:14:57.243Z,99.90
2018-04-12T08:17:25.659Z,99.90
2018-04-12T08:19:54.031Z,99.90
2018-04-12T08:22:22.409Z,99.90
2018-04-12T08:24:50.792Z,99.90
2018-04-12T08:27:19.966Z,99.90
2018-04-12T08:29:48.304Z,99.90
2018-04-12T08:32:17.457Z,99.90
2018-04-12T08:34:46.024Z,99.90
2018-04-12T08:37:14.396Z,99.90
2018-04-12T08:39:42.850Z,99.90
2018-04-12T08:42:11.222Z,99.90
2018-04-12T08:44:40.354Z,99.90
2018-04-12T08:47:08.734Z,99.90
2018-04-12T08:49:38.126Z,99.90
2018-04-12T08:52:07.357Z,99.90
2018-04-12T08:54:35.771Z,99.90
2018-04-12T08:57:04.139Z,99.90
2018-04-12T08:59:32.521Z,99.90
2018-04-12T09:02:00.986Z,99.90
2018-04-12T09:04:29.361Z,99.90
2018-04-12T09:06:57.750Z,99.90
2018-04-12T09:09:26.123Z,99.90
2018-04-12T09:11:54.516Z,99.90
2018-04-12T09:14:22.901Z,99.90
2018-04-12T09:16:51.281Z,99.90
2018-04-12T09:19:19.660Z,99.90
2018-04-12T09:21:48.177Z,99.90
2018-04-12T09:24:16.650Z,99.90
2018-04-12T09:26:45.079Z,99.90
2018-04-12T09:29:13.435Z,99.90
2018-04-12T09:31:41.845Z,99.90
2018-04-12T09:34:10.195Z,99.90
2018-04-12T09:36:38.564Z,99.90
2018-04-12T09:39:06.930Z,99.90
2018-04-12T09:41:35.464Z,99.90
2018-04-12T09:44:03.840Z,99.90
2018-04-12T09:46:32.212Z,99.90
2018-04-12T09:49:00.614Z,99.90
2018-04-12T09:51:29.010Z,99.90
2018-04-12T09:53:57.453Z,99.90
2018-04-12T09:56:25.816Z,99.90
2018-04-12T09:58:54.206Z,99.90
2018-04-12T10:01:22.608Z,99.90
2018-04-12T10:03:51.679Z,99.90
2018-04-12T10:06:22.962Z,99.90
2018-04-12T10:08:57.032Z,99.90
2018-04-12T10:11:26.138Z,99.90
2018-04-12T10:13:54.513Z,99.90
2018-04-12T10:16:22.916Z,99.90
2018-04-12T10:18:51.295Z,99.90
2018-04-12T10:21:19.687Z,99.90
2018-04-12T10:23:48.038Z,99.90
2018-04-12T10:26:16.469Z,99.90
2018-04-12T10:28:44.951Z,99.90
2018-04-12T10:31:13.300Z,99.90
2018-04-12T10:33:41.653Z,99.90
2018-04-12T10:36:10.112Z,99.90
2018-04-12T10:38:38.461Z,99.90
2018-04-12T10:41:06.828Z,99.90
2018-04-12T10:43:35.203Z,99.90
2018-04-12T10:46:03.546Z,99.90
2018-04-12T10:48:31.933Z,99.90
2018-04-12T10:51:00.306Z,99.90
2018-04-12T10:53:28.688Z,99.90
2018-04-12T10:55:57.044Z,99.90
2018-04-12T10:58:26.197Z,99.90
2018-04-12T11:00:54.648Z,99.90
2018-04-12T11:03:23.065Z,99.90
2018-04-12T11:05:51.423Z,99.90
2018-04-12T11:08:19.772Z,99.90
2018-04-12T11:10:48.162Z,99.90
2018-04-12T11:13:16.503Z,99.90
2018-04-12T11:15:45.663Z,99.90
2018-04-12T11:18:14.057Z,99.90
2018-04-12T11:20:42.516Z,99.90
2018-04-12T11:23:10.896Z,99.90
2018-04-12T11:25:39.391Z,99.90
2018-04-12T11:28:07.840Z,99.90
2018-04-12T11:30:36.204Z,99.90
2018-04-12T11:33:04.719Z,99.90
2018-04-12T11:35:33.086Z,99.90
2018-04-12T11:38:01.471Z,99.90
2018-04-12T11:40:29.837Z,99.90
2018-04-12T11:42:58.229Z,99.90
2018-04-12T11:45:28.691Z,99.90
2018-04-12T11:47:58.172Z,99.90
2018-04-12T11:50:26.739Z,99.90
2018-04-12T11:52:55.131Z,99.90
2018-04-12T11:55:23.499Z,99.90
2018-04-12T11:57:51.868Z,99.90
2018-04-12T12:00:20.270Z,99.90
2018-04-12T12:02:48.647Z,99.90
2018-04-12T12:05:17.043Z,99.90
2018-04-12T12:07:45.425Z,99.90
2018-04-12T12:10:13.785Z,97.80
2018-04-12T12:12:42.140Z,96.50
2018-04-12T12:15:10.511Z,95.00
2018-04-12T12:17:39.944Z,93.20
2018-04-12T12:20:09.318Z,91.30
2018-04-12T12:22:37.747Z,91.10
2018-04-12T12:25:06.125Z,89.70
2018-04-12T12:27:34.472Z,90.20
2018-04-12T12:30:02.827Z,90.00
2018-04-12T12:32:31.979Z,87.40
2018-04-12T12:35:00.340Z,87.40
2018-04-12T12:37:29.030Z,89.60
2018-04-12T12:39:57.370Z,90.10
2018-04-12T12:42:26.508Z,91.40
2018-04-12T12:44:54.858Z,91.30
2018-04-12T12:47:23.253Z,91.90
2018-04-12T12:49:51.647Z,92.20
2018-04-12T12:52:20.100Z,92.70
2018-04-12T12:54:48.511Z,92.50
2018-04-12T12:57:22.881Z,91.80
2018-04-12T12:59:52.023Z,89.90
2018-04-12T13:02:20.856Z,89.90
2018-04-12T13:04:49.304Z,90.20
2018-04-12T13:07:17.988Z,88.50
2018-04-12T13:09:46.479Z,86.60
2018-04-12T13:12:14.846Z,88.40
2018-04-12T13:14:55.879Z,90.00
2018-04-12T13:17:24.398Z,90.30
2018-04-12T13:19:52.800Z,90.50
2018-04-12T13:22:26.956Z,87.70
2018-04-12T13:24:56.080Z,85.40
2018-04-12T13:27:24.437Z,86.20
2018-04-12T13:29:52.796Z,84.30
2018-04-12T13:32:27.787Z,82.80
2018-04-12T13:34:56.273Z,82.90
2018-04-12T13:37:24.698Z,84.20
2018-04-12T13:39:53.056Z,82.80
2018-04-12T13:42:21.780Z,84.70
2018-04-12T13:44:50.920Z,81.50
2018-04-12T13:47:19.292Z,81.40
2018-04-12T13:49:47.868Z,83.10
2018-04-12T13:52:16.343Z,83.80
2018-04-12T13:54:44.695Z,82.30
2018-04-12T13:57:13.114Z,79.00
2018-04-12T13:59:41.486Z,81.20
2018-04-12T14:02:15.626Z,82.80
2018-04-12T14:04:44.163Z,80.80
2018-04-12T14:07:12.607Z,81.80
2018-04-12T14:09:41.023Z,82.80
2018-04-12T14:12:09.386Z,81.50
2018-04-12T14:14:44.372Z,83.90
2018-04-12T14:17:12.845Z,84.00
2018-04-12T14:19:46.891Z,85.20
2018-04-12T14:22:21.144Z,86.70
2018-04-12T14:24:49.540Z,88.10
2018-04-12T14:27:17.958Z,87.70
2018-04-12T14:29:46.366Z,85.60
2018-04-12T14:32:21.507Z,84.00
2018-04-12T14:34:56.707Z,84.10
2018-04-12T14:37:25.066Z,84.10
2018-04-12T14:39:59.191Z,84.90
2018-04-12T14:42:27.726Z,84.50
2018-04-12T14:45:02.574Z,86.90
2018-04-12T14:47:30.986Z,86.90
2018-04-12T14:50:05.324Z,89.30
2018-04-12T14:52:39.517Z,89.90
2018-04-12T14:55:07.896Z,91.10
2018-04-12T14:57:36.320Z,90.90
2018-04-12T15:00:11.538Z,91.50
2018-04-12T15:02:39.938Z,91.50
2018-04-12T15:05:09.352Z,93.30
2018-04-12T15:07:43.713Z,93.30
2018-04-12T15:10:12.108Z,92.80
2018-04-12T15:12:40.472Z,92.40
2018-04-12T15:15:08.852Z,92.60
2018-04-12T15:17:43.076Z,92.60
2018-04-12T15:20:17.277Z,92.70
2018-04-12T15:22:51.428Z,92.90
2018-04-12T15:25:19.902Z,93.30
2018-04-12T15:27:54.322Z,93.10
2018-04-12T15:30:22.686Z,93.40
2018-04-12T15:32:51.065Z,93.00
2018-04-12T15:35:19.419Z,93.00
2018-04-12T15:37:53.869Z,93.40
2018-04-12T15:40:22.266Z,93.20
2018-04-12T15:42:50.707Z,93.40
2018-04-12T15:45:25.165Z,93.50
2018-04-12T15:47:54.418Z,93.90
2018-04-12T15:52:57.448Z,94.40
2018-04-12T15:55:25.939Z,94.60
2018-04-12T15:57:54.294Z,94.80
2018-04-12T16:00:22.650Z,95.10
2018-04-12T16:02:57.019Z,95.40
2018-04-12T16:05:31.184Z,95.50
2018-04-12T16:08:05.458Z,95.60
2018-04-12T16:10:33.845Z,95.90
2018-04-12T16:13:02.199Z,96.40
2018-04-12T16:15:30.584Z,96.70
2018-04-12T16:17:59.003Z,97.00
2018-04-12T16:20:28.117Z,97.00
2018-04-12T16:22:56.503Z,97.00
2018-04-12T16:25:24.895Z,97.10
2018-04-12T16:27:53.501Z,97.30
2018-04-12T16:30:21.959Z,97.70
2018-04-12T16:32:50.417Z,98.00
2018-04-12T16:35:19.020Z,98.30
2018-04-12T16:37:47.380Z,98.60
2018-04-12T16:40:15.866Z,98.70
2018-04-12T16:42:44.221Z,99.10
2018-04-12T16:45:12.587Z,99.30
2018-04-12T16:47:40.951Z,99.40
2018-04-12T16:50:14.906Z,99.60
2018-04-12T16:52:49.848Z,99.90
2018-04-12T16:55:18.271Z,99.90
2018-04-12T16:57:46.664Z,99.90
2018-04-12T17:00:21.567Z,99.90
2018-04-12T17:02:49.967Z,99.90
2018-04-12T17:05:18.396Z,99.90
2018-04-12T17:07:53.554Z,99.90
2018-04-12T17:10:27.674Z,99.90
2018-04-12T17:12:56.843Z,99.90
2018-04-12T17:15:25.244Z,99.90
2018-04-12T17:17:53.703Z,99.90
2018-04-12T17:20:22.893Z,99.90
2018-04-12T17:22:57.084Z,99.90
2018-04-12T17:25:25.532Z,99.90
2018-04-12T17:27:53.933Z,99.90
2018-04-12T17:30:28.236Z,99.90
2018-04-12T17:32:56.677Z,99.90
2018-04-12T17:35:31.936Z,99.90
2018-04-12T17:38:12.128Z,99.90
2018-04-12T17:40:40.620Z,99.90
2018-04-12T17:43:15.334Z,99.90
2018-04-12T17:45:49.647Z,99.90
2018-04-12T17:48:23.769Z,99.90
2018-04-12T17:50:52.128Z,99.90
2018-04-12T17:53:20.482Z,99.90
2018-04-12T17:55:48.976Z,99.90
2018-04-12T17:58:17.343Z,99.90
2018-04-12T18:00:47.355Z,99.90
2018-04-12T18:03:16.504Z,99.90
2018-04-12T18:05:44.989Z,99.90
2018-04-12T18:08:19.239Z,99.90
2018-04-12T18:10:47.587Z,99.90
2018-04-12T18:13:15.974Z,99.90
2018-04-12T18:15:44.335Z,99.90
2018-04-12T18:18:12.750Z,99.90
2018-04-12T18:20:41.192Z,99.90
2018-04-12T18:23:15.720Z,99.90
2018-04-12T18:25:49.987Z,99.90
2018-04-12T18:28:24.195Z,99.90
2018-04-12T18:30:53.317Z,99.90
2018-04-12T18:33:27.682Z,99.90
2018-04-12T18:35:56.048Z,99.90
2018-04-12T18:38:30.439Z,99.90
2018-04-12T18:40:58.954Z,99.90
2018-04-12T18:43:39.130Z,99.90
2018-04-12T18:46:07.571Z,99.90
2018-04-12T18:48:35.964Z,99.90
2018-04-12T18:51:10.140Z,99.90
2018-04-12T18:53:38.527Z,99.90
2018-04-12T18:56:06.943Z,99.90
2018-04-12T18:58:35.553Z,99.90
2018-04-12T19:01:15.676Z,99.90
2018-04-12T19:03:50.035Z,99.90
2018-04-12T19:06:18.472Z,99.90
2018-04-12T19:08:46.779Z,99.90
2018-04-12T19:11:15.484Z,99.90
2018-04-12T19:13:55.808Z,99.90
2018-04-12T19:16:24.412Z,99.90
2018-04-12T19:18:58.435Z,99.90
2018-04-12T19:21:32.434Z,99.90
2018-04-12T19:24:06.690Z,99.90
2018-04-12T19:26:35.848Z,99.90
2018-04-12T19:29:04.225Z,99.90
2018-04-12T19:31:38.461Z,99.90
2018-04-12T19:34:07.310Z,99.90
2018-04-12T19:36:41.647Z,99.90
2018-04-12T19:39:10.356Z,99.90
2018-04-12T19:41:39.592Z,99.90
2018-04-12T19:44:08.234Z,99.90
2018-04-12T19:46:36.620Z,99.90
2018-04-12T19:49:05.003Z,99.90
2018-04-12T19:51:33.473Z,99.90
2018-04-12T19:54:01.886Z,99.90
2018-04-12T19:56:30.616Z,99.90
2018-04-12T19:58:58.956Z,99.90
2018-04-12T20:01:27.485Z,99.90
2018-04-12T20:04:01.733Z,99.90
2018-04-12T20:06:30.997Z,99.90
2018-04-12T20:09:05.172Z,99.90
2018-04-12T20:11:34.335Z,99.90
2018-04-12T20:14:08.600Z,99.90
2018-04-12T20:16:42.944Z,99.90
2018-04-12T20:19:11.551Z,99.90
2018-04-12T20:21:40.440Z,99.90
2018-04-12T20:24:08.950Z,99.90
2018-04-12T20:26:49.141Z,99.90
2018-04-12T20:29:23.503Z,99.90
2018-04-12T20:31:52.035Z,99.90
2018-04-12T20:34:20.756Z,99.90
2018-04-12T20:36:49.119Z,99.90
2018-04-12T20:39:17.639Z,99.90
2018-04-12T20:41:46.031Z,99.90
2018-04-12T20:44:15.561Z,99.90
2018-04-12T20:46:49.720Z,99.90
2018-04-12T20:49:23.968Z,99.90
2018-04-12T20:51:52.347Z,99.90
2018-04-12T20:54:21.319Z,99.90
2018-04-12T20:56:49.673Z,99.90
2018-04-12T20:59:18.379Z,99.90
2018-04-12T21:01:46.891Z,99.90
2018-04-12T21:04:16.088Z,99.90
2018-04-12T21:06:44.456Z,99.90
2018-04-12T21:09:19.079Z,99.90
2018-04-12T21:11:47.632Z,99.90
2018-04-12T21:14:15.976Z,99.90
2018-04-12T21:16:44.341Z,99.90
2018-04-12T21:19:19.429Z,99.90
2018-04-12T21:21:47.804Z,99.90
2018-04-12T21:24:16.332Z,99.90
2018-04-12T21:26:44.903Z,99.90
2018-04-12T21:29:13.423Z,99.90
2018-04-12T21:31:41.791Z,99.90
2018-04-12T21:34:11.066Z,99.90
2018-04-12T21:36:40.015Z,99.90
2018-04-12T21:39:08.371Z,99.90
2018-04-12T21:41:36.720Z,99.90
2018-04-12T21:44:05.117Z,99.90
2018-04-12T21:46:34.660Z,99.90
2018-04-12T21:49:09.222Z,99.90
2018-04-12T21:51:38.420Z,99.90
2018-04-12T21:54:06.954Z,99.90
2018-04-12T21:56:35.379Z,99.90
2018-04-12T21:59:04.025Z,99.90
2018-04-12T22:01:38.117Z,99.90
2018-04-12T22:04:07.500Z,99.90
2018-04-12T22:06:36.123Z,99.90
2018-04-12T22:09:04.673Z,99.90
2018-04-12T22:11:44.660Z,99.90
2018-04-12T22:14:19.115Z,99.90
2018-04-12T22:16:47.767Z,99.90
2018-04-12T22:19:22.657Z,99.90
2018-04-12T22:21:57.054Z,99.90
2018-04-12T22:24:25.552Z,99.90
2018-04-12T22:26:54.288Z,99.90
2018-04-12T22:29:22.758Z,99.90
2018-04-12T22:31:57.040Z,99.90
2018-04-12T22:34:25.613Z,99.90
2018-04-12T22:36:53.987Z,99.90
2018-04-12T22:39:23.261Z,99.90
2018-04-12T22:41:51.730Z,99.90
2018-04-12T22:44:20.486Z,99.90
2018-04-12T22:46:55.161Z,99.90
2018-04-12T22:49:23.837Z,99.90
2018-04-12T22:51:58.696Z,99.90
2018-04-12T22:54:33.014Z,99.90
2018-04-12T22:57:01.414Z,99.90
2018-04-12T22:59:29.961Z,99.90
2018-04-12T23:01:59.559Z,99.90
2018-04-12T23:04:28.299Z,99.90
2018-04-12T23:06:56.971Z,99.90
2018-04-12T23:09:31.200Z,99.90
2018-04-12T23:11:59.611Z,99.90
2018-04-12T23:14:28.822Z,99.90
2018-04-12T23:16:57.620Z,99.90
2018-04-12T23:19:25.976Z,99.90
2018-04-12T23:21:54.356Z,99.90
2018-04-12T23:24:22.735Z,99.90
2018-04-12T23:26:51.124Z,99.90
2018-04-12T23:29:19.596Z,99.90
2018-04-12T23:31:48.761Z,99.90
2018-04-12T23:34:23.165Z,99.90
2018-04-12T23:37:03.312Z,99.90
2018-04-12T23:39:31.699Z,99.90
2018-04-12T23:42:00.104Z,99.90
2018-04-12T23:44:34.087Z,99.90
2018-04-12T23:47:08.511Z,99.90
2018-04-12T23:49:43.573Z,99.90
2018-04-12T23:52:11.924Z,99.90
2018-04-12T23:54:40.328Z,99.90
2018-04-12T23:57:08.695Z,99.90
2018-04-12T23:59:37.795Z,99.90
